sensor_id;sensor_type;location;lat;lon;timestamp;P1;durP1;ratioP1;P2;durP2;ratioP2
22455;SDS011;11395;53.204;6.502;2022-12-18T00:09:31;8.60;;;6.97;;
22455;SDS011;11395;53.204;6.502;2022-12-18T00:11:58;8.60;;;7.23;;
22455;SDS011;11395;53.204;6.502;2022-12-18T00:14:24;8.03;;;7.23;;
22455;SDS011;11395;53.204;6.502;2022-12-18T00:16:50;8.00;;;7.20;;
22455;SDS011;11395;53.204;6.502;2022-12-18T00:19:16;8.23;;;7.10;;
22455;SDS011;11395;53.204;6.502;2022-12-18T00:21:42;9.87;;;8.10;;
22455;SDS011;11395;53.204;6.502;2022-12-18T00:24:09;8.33;;;7.30;;
22455;SDS011;11395;53.204;6.502;2022-12-18T00:26:37;11.40;;;8.70;;
22455;SDS011;11395;53.204;6.502;2022-12-18T00:29:09;11.20;;;7.97;;
22455;SDS011;11395;53.204;6.502;2022-12-18T00:31:39;9.43;;;7.30;;
22455;SDS011;11395;53.204;6.502;2022-12-18T00:34:06;11.37;;;7.97;;
22455;SDS011;11395;53.204;6.502;2022-12-18T00:36:35;10.40;;;7.97;;
22455;SDS011;11395;53.204;6.502;2022-12-18T00:39:02;10.83;;;8.43;;
22455;SDS011;11395;53.204;6.502;2022-12-18T00:41:30;8.40;;;7.50;;
22455;SDS011;11395;53.204;6.502;2022-12-18T00:44:16;9.87;;;8.27;;
22455;SDS011;11395;53.204;6.502;2022-12-18T00:46:44;10.70;;;8.23;;
22455;SDS011;11395;53.204;6.502;2022-12-18T00:49:11;11.10;;;8.53;;
22455;SDS011;11395;53.204;6.502;2022-12-18T00:51:37;10.27;;;8.43;;
22455;SDS011;11395;53.204;6.502;2022-12-18T00:54:04;10.17;;;8.43;;
22455;SDS011;11395;53.204;6.502;2022-12-18T00:56:30;11.03;;;8.77;;
22455;SDS011;11395;53.204;6.502;2022-12-18T00:58:56;9.87;;;8.00;;
22455;SDS011;11395;53.204;6.502;2022-12-18T01:05:31;10.53;;;8.33;;
22455;SDS011;11395;53.204;6.502;2022-12-18T01:07:58;9.90;;;8.90;;
22455;SDS011;11395;53.204;6.502;2022-12-18T01:10:25;10.30;;;8.53;;
22455;SDS011;11395;53.204;6.502;2022-12-18T01:12:51;10.90;;;8.20;;
22455;SDS011;11395;53.204;6.502;2022-12-18T01:15:17;9.97;;;8.33;;
22455;SDS011;11395;53.204;6.502;2022-12-18T01:17:45;9.63;;;8.03;;
22455;SDS011;11395;53.204;6.502;2022-12-18T01:20:12;10.33;;;8.27;;
22455;SDS011;11395;53.204;6.502;2022-12-18T01:22:38;9.77;;;8.33;;
22455;SDS011;11395;53.204;6.502;2022-12-18T01:25:06;9.70;;;8.30;;
22455;SDS011;11395;53.204;6.502;2022-12-18T01:27:33;10.97;;;8.43;;
22455;SDS011;11395;53.204;6.502;2022-12-18T01:30:00;9.70;;;8.17;;
22455;SDS011;11395;53.204;6.502;2022-12-18T01:32:28;10.27;;;7.90;;
22455;SDS011;11395;53.204;6.502;2022-12-18T01:34:56;10.90;;;7.90;;
22455;SDS011;11395;53.204;6.502;2022-12-18T01:37:22;9.20;;;8.17;;
22455;SDS011;11395;53.204;6.502;2022-12-18T01:39:48;9.00;;;8.00;;
22455;SDS011;11395;53.204;6.502;2022-12-18T01:42:15;9.17;;;7.87;;
22455;SDS011;11395;53.204;6.502;2022-12-18T01:44:53;12.03;;;8.57;;
22455;SDS011;11395;53.204;6.502;2022-12-18T01:49:54;9.67;;;7.77;;
22455;SDS011;11395;53.204;6.502;2022-12-18T01:52:22;11.17;;;8.60;;
22455;SDS011;11395;53.204;6.502;2022-12-18T01:54:54;10.67;;;8.63;;
22455;SDS011;11395;53.204;6.502;2022-12-18T01:57:21;11.27;;;8.73;;
22455;SDS011;11395;53.204;6.502;2022-12-18T01:59:49;9.70;;;7.67;;
22455;SDS011;11395;53.204;6.502;2022-12-18T02:09:41;11.30;;;8.63;;
22455;SDS011;11395;53.204;6.502;2022-12-18T02:12:21;9.40;;;8.20;;
22455;SDS011;11395;53.204;6.502;2022-12-18T02:17:31;10.17;;;8.07;;
22455;SDS011;11395;53.204;6.502;2022-12-18T02:23:06;10.43;;;8.97;;
22455;SDS011;11395;53.204;6.502;2022-12-18T02:28:44;10.63;;;9.20;;
22455;SDS011;11395;53.204;6.502;2022-12-18T02:31:23;10.93;;;8.53;;
22455;SDS011;11395;53.204;6.502;2022-12-18T02:33:54;9.97;;;8.27;;
22455;SDS011;11395;53.204;6.502;2022-12-18T02:36:24;9.77;;;8.77;;
22455;SDS011;11395;53.204;6.502;2022-12-18T02:38:54;10.90;;;8.80;;
22455;SDS011;11395;53.204;6.502;2022-12-18T02:41:22;10.67;;;9.03;;
22455;SDS011;11395;53.204;6.502;2022-12-18T02:43:58;12.43;;;10.00;;
22455;SDS011;11395;53.204;6.502;2022-12-18T02:49:06;10.93;;;8.43;;
22455;SDS011;11395;53.204;6.502;2022-12-18T02:54:20;11.63;;;8.80;;
22455;SDS011;11395;53.204;6.502;2022-12-18T02:56:58;11.17;;;8.90;;
22455;SDS011;11395;53.204;6.502;2022-12-18T02:59:35;10.53;;;8.83;;
22455;SDS011;11395;53.204;6.502;2022-12-18T03:06:41;10.13;;;8.33;;
22455;SDS011;11395;53.204;6.502;2022-12-18T03:09:35;10.50;;;8.30;;
22455;SDS011;11395;53.204;6.502;2022-12-18T03:12:04;10.17;;;8.47;;
22455;SDS011;11395;53.204;6.502;2022-12-18T03:17:34;10.63;;;8.27;;
22455;SDS011;11395;53.204;6.502;2022-12-18T03:20:06;10.73;;;9.60;;
22455;SDS011;11395;53.204;6.502;2022-12-18T03:22:37;10.07;;;8.40;;
22455;SDS011;11395;53.204;6.502;2022-12-18T03:25:07;9.23;;;7.77;;
22455;SDS011;11395;53.204;6.502;2022-12-18T03:27:39;10.93;;;8.50;;
22455;SDS011;11395;53.204;6.502;2022-12-18T03:30:12;9.00;;;7.83;;
22455;SDS011;11395;53.204;6.502;2022-12-18T03:35:40;11.83;;;8.77;;
22455;SDS011;11395;53.204;6.502;2022-12-18T03:38:10;9.70;;;8.57;;
22455;SDS011;11395;53.204;6.502;2022-12-18T03:40:48;10.30;;;7.70;;
22455;SDS011;11395;53.204;6.502;2022-12-18T03:43:22;10.70;;;8.03;;
22455;SDS011;11395;53.204;6.502;2022-12-18T03:45:53;11.80;;;8.80;;
22455;SDS011;11395;53.204;6.502;2022-12-18T03:48:28;9.73;;;8.30;;
22455;SDS011;11395;53.204;6.502;2022-12-18T03:51:05;10.33;;;8.73;;
22455;SDS011;11395;53.204;6.502;2022-12-18T03:56:33;10.20;;;8.43;;
22455;SDS011;11395;53.204;6.502;2022-12-18T03:59:03;10.63;;;8.37;;
22455;SDS011;11395;53.204;6.502;2022-12-18T04:01:33;11.40;;;8.80;;
22455;SDS011;11395;53.204;6.502;2022-12-18T04:04:03;11.07;;;8.10;;
22455;SDS011;11395;53.204;6.502;2022-12-18T04:06:34;10.03;;;8.50;;
22455;SDS011;11395;53.204;6.502;2022-12-18T04:09:01;9.43;;;8.13;;
22455;SDS011;11395;53.204;6.502;2022-12-18T04:11:29;9.13;;;7.37;;
22455;SDS011;11395;53.204;6.502;2022-12-18T04:13:57;9.90;;;8.00;;
22455;SDS011;11395;53.204;6.502;2022-12-18T04:16:24;8.87;;;7.37;;
22455;SDS011;11395;53.204;6.502;2022-12-18T04:18:56;9.00;;;7.87;;
22455;SDS011;11395;53.204;6.502;2022-12-18T04:21:24;10.57;;;7.93;;
22455;SDS011;11395;53.204;6.502;2022-12-18T04:23:51;10.20;;;8.10;;
22455;SDS011;11395;53.204;6.502;2022-12-18T04:26:20;10.17;;;8.50;;
22455;SDS011;11395;53.204;6.502;2022-12-18T04:28:58;11.27;;;8.37;;
22455;SDS011;11395;53.204;6.502;2022-12-18T04:31:24;9.53;;;7.90;;
22455;SDS011;11395;53.204;6.502;2022-12-18T04:33:51;11.37;;;8.90;;
22455;SDS011;11395;53.204;6.502;2022-12-18T04:36:18;10.13;;;7.87;;
22455;SDS011;11395;53.204;6.502;2022-12-18T04:38:45;10.70;;;8.07;;
22455;SDS011;11395;53.204;6.502;2022-12-18T04:41:14;9.17;;;7.40;;
22455;SDS011;11395;53.204;6.502;2022-12-18T04:43:42;9.67;;;8.13;;
22455;SDS011;11395;53.204;6.502;2022-12-18T04:46:08;8.70;;;7.13;;
22455;SDS011;11395;53.204;6.502;2022-12-18T04:48:35;9.07;;;7.37;;
22455;SDS011;11395;53.204;6.502;2022-12-18T04:51:02;9.03;;;7.23;;
22455;SDS011;11395;53.204;6.502;2022-12-18T04:53:29;10.63;;;8.23;;
22455;SDS011;11395;53.204;6.502;2022-12-18T04:56:05;10.27;;;8.23;;
22455;SDS011;11395;53.204;6.502;2022-12-18T04:58:33;9.20;;;7.90;;
22455;SDS011;11395;53.204;6.502;2022-12-18T05:01:00;9.63;;;7.60;;
22455;SDS011;11395;53.204;6.502;2022-12-18T05:03:28;10.73;;;7.70;;
22455;SDS011;11395;53.204;6.502;2022-12-18T05:05:55;8.90;;;7.20;;
22455;SDS011;11395;53.204;6.502;2022-12-18T05:08:21;8.07;;;7.10;;
22455;SDS011;11395;53.204;6.502;2022-12-18T05:10:47;9.50;;;7.90;;
22455;SDS011;11395;53.204;6.502;2022-12-18T05:13:14;8.70;;;7.20;;
22455;SDS011;11395;53.204;6.502;2022-12-18T05:15:40;8.37;;;7.47;;
22455;SDS011;11395;53.204;6.502;2022-12-18T05:18:07;9.47;;;7.80;;
22455;SDS011;11395;53.204;6.502;2022-12-18T05:20:34;9.90;;;8.00;;
22455;SDS011;11395;53.204;6.502;2022-12-18T05:23:00;8.67;;;7.77;;
22455;SDS011;11395;53.204;6.502;2022-12-18T05:25:26;10.27;;;8.00;;
22455;SDS011;11395;53.204;6.502;2022-12-18T05:27:52;9.00;;;7.40;;
22455;SDS011;11395;53.204;6.502;2022-12-18T05:30:18;10.23;;;8.13;;
22455;SDS011;11395;53.204;6.502;2022-12-18T05:32:44;9.60;;;8.00;;
22455;SDS011;11395;53.204;6.502;2022-12-18T05:35:11;10.37;;;8.00;;
22455;SDS011;11395;53.204;6.502;2022-12-18T05:37:37;12.70;;;9.03;;
22455;SDS011;11395;53.204;6.502;2022-12-18T05:40:03;9.00;;;8.07;;
22455;SDS011;11395;53.204;6.502;2022-12-18T05:42:30;10.63;;;9.10;;
22455;SDS011;11395;53.204;6.502;2022-12-18T05:44:56;10.63;;;8.37;;
22455;SDS011;11395;53.204;6.502;2022-12-18T05:47:23;10.33;;;8.47;;
22455;SDS011;11395;53.204;6.502;2022-12-18T05:49:49;9.87;;;7.93;;
22455;SDS011;11395;53.204;6.502;2022-12-18T05:52:15;10.43;;;8.57;;
22455;SDS011;11395;53.204;6.502;2022-12-18T05:54:41;9.43;;;7.83;;
22455;SDS011;11395;53.204;6.502;2022-12-18T05:57:07;11.13;;;8.37;;
22455;SDS011;11395;53.204;6.502;2022-12-18T05:59:34;12.10;;;8.47;;
22455;SDS011;11395;53.204;6.502;2022-12-18T06:02:00;10.73;;;8.20;;
22455;SDS011;11395;53.204;6.502;2022-12-18T06:04:27;9.23;;;7.50;;
22455;SDS011;11395;53.204;6.502;2022-12-18T06:06:54;8.63;;;7.73;;
22455;SDS011;11395;53.204;6.502;2022-12-18T06:09:20;10.20;;;8.03;;
22455;SDS011;11395;53.204;6.502;2022-12-18T06:11:46;10.27;;;8.27;;
22455;SDS011;11395;53.204;6.502;2022-12-18T06:14:12;9.00;;;7.67;;
22455;SDS011;11395;53.204;6.502;2022-12-18T06:16:39;9.13;;;8.20;;
22455;SDS011;11395;53.204;6.502;2022-12-18T06:19:05;8.90;;;8.00;;
22455;SDS011;11395;53.204;6.502;2022-12-18T06:21:31;11.03;;;8.67;;
22455;SDS011;11395;53.204;6.502;2022-12-18T06:23:58;9.67;;;7.90;;
22455;SDS011;11395;53.204;6.502;2022-12-18T06:26:25;11.07;;;8.53;;
22455;SDS011;11395;53.204;6.502;2022-12-18T06:28:51;9.50;;;7.93;;
22455;SDS011;11395;53.204;6.502;2022-12-18T06:31:17;9.30;;;7.63;;
22455;SDS011;11395;53.204;6.502;2022-12-18T06:33:43;9.47;;;8.20;;
22455;SDS011;11395;53.204;6.502;2022-12-18T06:36:11;9.47;;;7.97;;
22455;SDS011;11395;53.204;6.502;2022-12-18T06:38:39;9.20;;;7.40;;
22455;SDS011;11395;53.204;6.502;2022-12-18T06:41:11;11.80;;;8.17;;
22455;SDS011;11395;53.204;6.502;2022-12-18T06:43:42;9.60;;;7.50;;
22455;SDS011;11395;53.204;6.502;2022-12-18T06:46:08;10.30;;;7.40;;
22455;SDS011;11395;53.204;6.502;2022-12-18T06:48:34;9.67;;;7.97;;
22455;SDS011;11395;53.204;6.502;2022-12-18T06:51:01;11.20;;;7.57;;
22455;SDS011;11395;53.204;6.502;2022-12-18T06:53:27;10.67;;;8.20;;
22455;SDS011;11395;53.204;6.502;2022-12-18T06:55:59;9.23;;;7.80;;
22455;SDS011;11395;53.204;6.502;2022-12-18T06:58:27;9.90;;;8.27;;
22455;SDS011;11395;53.204;6.502;2022-12-18T07:00:53;9.37;;;8.23;;
22455;SDS011;11395;53.204;6.502;2022-12-18T07:03:19;9.10;;;7.57;;
22455;SDS011;11395;53.204;6.502;2022-12-18T07:05:45;9.90;;;8.27;;
22455;SDS011;11395;53.204;6.502;2022-12-18T07:08:12;9.70;;;8.17;;
22455;SDS011;11395;53.204;6.502;2022-12-18T07:10:42;8.90;;;7.37;;
22455;SDS011;11395;53.204;6.502;2022-12-18T07:13:08;10.97;;;8.17;;
22455;SDS011;11395;53.204;6.502;2022-12-18T07:15:35;8.93;;;7.50;;
22455;SDS011;11395;53.204;6.502;2022-12-18T07:18:01;9.77;;;7.37;;
22455;SDS011;11395;53.204;6.502;2022-12-18T07:20:27;10.40;;;7.70;;
22455;SDS011;11395;53.204;6.502;2022-12-18T07:22:54;10.13;;;7.67;;
22455;SDS011;11395;53.204;6.502;2022-12-18T07:25:20;9.27;;;7.57;;
22455;SDS011;11395;53.204;6.502;2022-12-18T07:27:47;7.83;;;7.03;;
22455;SDS011;11395;53.204;6.502;2022-12-18T07:30:13;9.30;;;7.97;;
22455;SDS011;11395;53.204;6.502;2022-12-18T07:32:39;9.63;;;7.23;;
22455;SDS011;11395;53.204;6.502;2022-12-18T07:35:05;9.27;;;7.67;;
22455;SDS011;11395;53.204;6.502;2022-12-18T07:37:32;9.10;;;7.63;;
22455;SDS011;11395;53.204;6.502;2022-12-18T07:39:58;9.23;;;7.33;;
22455;SDS011;11395;53.204;6.502;2022-12-18T07:42:24;11.07;;;7.87;;
22455;SDS011;11395;53.204;6.502;2022-12-18T07:44:56;8.00;;;6.70;;
22455;SDS011;11395;53.204;6.502;2022-12-18T07:47:23;9.70;;;7.83;;
22455;SDS011;11395;53.204;6.502;2022-12-18T07:49:49;10.53;;;7.77;;
22455;SDS011;11395;53.204;6.502;2022-12-18T07:52:15;9.30;;;7.67;;
22455;SDS011;11395;53.204;6.502;2022-12-18T07:54:41;7.67;;;6.87;;
22455;SDS011;11395;53.204;6.502;2022-12-18T07:57:08;9.43;;;6.97;;
22455;SDS011;11395;53.204;6.502;2022-12-18T07:59:34;9.50;;;7.10;;
22455;SDS011;11395;53.204;6.502;2022-12-18T08:02:01;7.83;;;6.83;;
22455;SDS011;11395;53.204;6.502;2022-12-18T08:04:27;8.57;;;7.63;;
22455;SDS011;11395;53.204;6.502;2022-12-18T08:06:53;8.00;;;6.60;;
22455;SDS011;11395;53.204;6.502;2022-12-18T08:09:19;10.00;;;7.90;;
22455;SDS011;11395;53.204;6.502;2022-12-18T08:11:46;7.90;;;7.07;;
22455;SDS011;11395;53.204;6.502;2022-12-18T08:14:12;8.37;;;6.50;;
22455;SDS011;11395;53.204;6.502;2022-12-18T08:16:39;7.87;;;6.57;;
22455;SDS011;11395;53.204;6.502;2022-12-18T08:19:05;8.33;;;6.80;;
22455;SDS011;11395;53.204;6.502;2022-12-18T08:21:31;7.60;;;6.60;;
22455;SDS011;11395;53.204;6.502;2022-12-18T08:23:58;8.33;;;7.10;;
22455;SDS011;11395;53.204;6.502;2022-12-18T08:26:27;8.77;;;7.27;;
22455;SDS011;11395;53.204;6.502;2022-12-18T08:28:55;8.43;;;6.77;;
22455;SDS011;11395;53.204;6.502;2022-12-18T08:31:22;8.53;;;6.87;;
22455;SDS011;11395;53.204;6.502;2022-12-18T08:33:50;9.43;;;7.63;;
22455;SDS011;11395;53.204;6.502;2022-12-18T08:36:18;7.33;;;6.27;;
22455;SDS011;11395;53.204;6.502;2022-12-18T08:38:45;7.80;;;7.00;;
22455;SDS011;11395;53.204;6.502;2022-12-18T08:41:13;9.77;;;6.97;;
22455;SDS011;11395;53.204;6.502;2022-12-18T08:43:40;7.90;;;6.60;;
22455;SDS011;11395;53.204;6.502;2022-12-18T08:46:26;7.93;;;6.37;;
22455;SDS011;11395;53.204;6.502;2022-12-18T08:48:56;7.43;;;6.50;;
22455;SDS011;11395;53.204;6.502;2022-12-18T08:51:22;9.13;;;7.07;;
22455;SDS011;11395;53.204;6.502;2022-12-18T08:53:49;8.40;;;6.57;;
22455;SDS011;11395;53.204;6.502;2022-12-18T08:56:15;9.00;;;6.17;;
22455;SDS011;11395;53.204;6.502;2022-12-18T08:58:41;8.23;;;5.87;;
22455;SDS011;11395;53.204;6.502;2022-12-18T09:01:08;7.00;;;5.97;;
22455;SDS011;11395;53.204;6.502;2022-12-18T09:03:36;7.60;;;6.10;;
22455;SDS011;11395;53.204;6.502;2022-12-18T09:06:03;7.33;;;6.37;;
22455;SDS011;11395;53.204;6.502;2022-12-18T09:08:30;7.53;;;6.00;;
22455;SDS011;11395;53.204;6.502;2022-12-18T09:11:01;10.10;;;6.07;;
22455;SDS011;11395;53.204;6.502;2022-12-18T09:13:27;6.97;;;6.00;;
22455;SDS011;11395;53.204;6.502;2022-12-18T09:15:54;7.33;;;5.63;;
22455;SDS011;11395;53.204;6.502;2022-12-18T09:18:22;8.77;;;6.23;;
22455;SDS011;11395;53.204;6.502;2022-12-18T09:20:49;5.87;;;5.17;;
22455;SDS011;11395;53.204;6.502;2022-12-18T09:23:18;7.43;;;5.03;;
22455;SDS011;11395;53.204;6.502;2022-12-18T09:25:45;6.20;;;5.40;;
22455;SDS011;11395;53.204;6.502;2022-12-18T09:28:12;6.50;;;4.90;;
22455;SDS011;11395;53.204;6.502;2022-12-18T09:30:41;6.87;;;5.57;;
22455;SDS011;11395;53.204;6.502;2022-12-18T09:33:09;6.10;;;5.17;;
22455;SDS011;11395;53.204;6.502;2022-12-18T09:35:36;7.57;;;5.63;;
22455;SDS011;11395;53.204;6.502;2022-12-18T09:38:04;6.53;;;5.27;;
22455;SDS011;11395;53.204;6.502;2022-12-18T09:40:35;5.63;;;4.97;;
22455;SDS011;11395;53.204;6.502;2022-12-18T09:43:05;6.50;;;5.20;;
22455;SDS011;11395;53.204;6.502;2022-12-18T09:45:43;7.33;;;5.20;;
22455;SDS011;11395;53.204;6.502;2022-12-18T09:48:25;6.73;;;5.63;;
22455;SDS011;11395;53.204;6.502;2022-12-18T09:50:59;7.23;;;5.50;;
22455;SDS011;11395;53.204;6.502;2022-12-18T09:53:31;7.03;;;5.47;;
22455;SDS011;11395;53.204;6.502;2022-12-18T09:56:01;6.10;;;5.33;;
22455;SDS011;11395;53.204;6.502;2022-12-18T09:59:04;5.60;;;5.00;;
22455;SDS011;11395;53.204;6.502;2022-12-18T10:01:26;6.40;;;5.80;;
22455;SDS011;11395;53.204;6.502;2022-12-18T10:03:54;6.37;;;5.20;;
22455;SDS011;11395;53.204;6.502;2022-12-18T10:09:05;5.50;;;5.00;;
22455;SDS011;11395;53.204;6.502;2022-12-18T10:20:02;7.03;;;5.13;;
22455;SDS011;11395;53.204;6.502;2022-12-18T10:22:32;5.63;;;4.80;;
22455;SDS011;11395;53.204;6.502;2022-12-18T10:25:13;5.83;;;5.00;;
22455;SDS011;11395;53.204;6.502;2022-12-18T10:27:54;6.57;;;5.00;;
22455;SDS011;11395;53.204;6.502;2022-12-18T10:30:26;5.37;;;4.73;;
22455;SDS011;11395;53.204;6.502;2022-12-18T10:32:53;5.90;;;4.87;;
22455;SDS011;11395;53.204;6.502;2022-12-18T10:35:24;5.63;;;4.87;;
22455;SDS011;11395;53.204;6.502;2022-12-18T10:38:05;6.47;;;4.53;;
22455;SDS011;11395;53.204;6.502;2022-12-18T10:40:31;5.53;;;5.03;;
22455;SDS011;11395;53.204;6.502;2022-12-18T10:43:13;7.87;;;5.37;;
22455;SDS011;11395;53.204;6.502;2022-12-18T10:45:40;5.37;;;4.80;;
22455;SDS011;11395;53.204;6.502;2022-12-18T10:48:20;5.30;;;4.60;;
22455;SDS011;11395;53.204;6.502;2022-12-18T10:50:48;6.03;;;5.43;;
22455;SDS011;11395;53.204;6.502;2022-12-18T10:53:24;5.30;;;4.80;;
22455;SDS011;11395;53.204;6.502;2022-12-18T10:55:52;5.93;;;5.30;;
22455;SDS011;11395;53.204;6.502;2022-12-18T10:58:22;6.00;;;5.03;;
22455;SDS011;11395;53.204;6.502;2022-12-18T11:01:01;5.73;;;4.27;;
22455;SDS011;11395;53.204;6.502;2022-12-18T11:03:37;4.70;;;4.30;;
22455;SDS011;11395;53.204;6.502;2022-12-18T11:06:12;5.57;;;4.60;;
22455;SDS011;11395;53.204;6.502;2022-12-18T11:08:43;5.47;;;4.97;;
22455;SDS011;11395;53.204;6.502;2022-12-18T11:11:22;4.63;;;4.23;;
22455;SDS011;11395;53.204;6.502;2022-12-18T11:16:44;5.80;;;4.70;;
22455;SDS011;11395;53.204;6.502;2022-12-18T11:19:20;5.77;;;4.60;;
22455;SDS011;11395;53.204;6.502;2022-12-18T11:21:50;5.60;;;4.80;;
22455;SDS011;11395;53.204;6.502;2022-12-18T11:24:20;5.10;;;4.60;;
22455;SDS011;11395;53.204;6.502;2022-12-18T11:26:55;4.73;;;4.23;;
22455;SDS011;11395;53.204;6.502;2022-12-18T11:29:27;5.57;;;4.30;;
22455;SDS011;11395;53.204;6.502;2022-12-18T11:38:46;4.67;;;4.17;;
22455;SDS011;11395;53.204;6.502;2022-12-18T11:40:59;4.33;;;3.93;;
22455;SDS011;11395;53.204;6.502;2022-12-18T11:43:28;4.50;;;4.03;;
22455;SDS011;11395;53.204;6.502;2022-12-18T11:46:43;4.47;;;3.90;;
22455;SDS011;11395;53.204;6.502;2022-12-18T11:48:53;5.23;;;4.60;;
22455;SDS011;11395;53.204;6.502;2022-12-18T11:51:34;4.30;;;3.80;;
22455;SDS011;11395;53.204;6.502;2022-12-18T11:54:12;4.67;;;3.93;;
22455;SDS011;11395;53.204;6.502;2022-12-18T12:02:29;5.00;;;4.43;;
22455;SDS011;11395;53.204;6.502;2022-12-18T12:13:38;4.50;;;4.03;;
22455;SDS011;11395;53.204;6.502;2022-12-18T12:26:52;3.77;;;3.37;;
22455;SDS011;11395;53.204;6.502;2022-12-18T12:31:54;3.80;;;3.43;;
22455;SDS011;11395;53.204;6.502;2022-12-18T12:34:34;3.97;;;3.53;;
22455;SDS011;11395;53.204;6.502;2022-12-18T12:39:52;4.47;;;3.83;;
22455;SDS011;11395;53.204;6.502;2022-12-18T12:42:26;2.83;;;2.63;;
22455;SDS011;11395;53.204;6.502;2022-12-18T12:45:26;3.50;;;3.20;;
22455;SDS011;11395;53.204;6.502;2022-12-18T12:48:00;3.03;;;2.83;;
22455;SDS011;11395;53.204;6.502;2022-12-18T12:50:29;3.20;;;2.87;;
22455;SDS011;11395;53.204;6.502;2022-12-18T12:52:59;3.50;;;3.20;;
22455;SDS011;11395;53.204;6.502;2022-12-18T12:55:31;3.47;;;3.17;;
22455;SDS011;11395;53.204;6.502;2022-12-18T12:58:16;3.37;;;3.07;;
22455;SDS011;11395;53.204;6.502;2022-12-18T13:01:08;3.73;;;3.10;;
22455;SDS011;11395;53.204;6.502;2022-12-18T13:03:54;3.07;;;2.87;;
22455;SDS011;11395;53.204;6.502;2022-12-18T13:06:43;3.27;;;2.93;;
22455;SDS011;11395;53.204;6.502;2022-12-18T13:09:23;3.60;;;3.30;;
22455;SDS011;11395;53.204;6.502;2022-12-18T13:11:49;4.00;;;3.23;;
22455;SDS011;11395;53.204;6.502;2022-12-18T13:14:38;3.63;;;3.33;;
22455;SDS011;11395;53.204;6.502;2022-12-18T13:19:50;3.27;;;2.97;;
22455;SDS011;11395;53.204;6.502;2022-12-18T13:22:35;5.70;;;2.97;;
22455;SDS011;11395;53.204;6.502;2022-12-18T13:25:34;3.87;;;3.20;;
22455;SDS011;11395;53.204;6.502;2022-12-18T13:28:01;3.23;;;2.90;;
22455;SDS011;11395;53.204;6.502;2022-12-18T13:30:42;2.93;;;2.70;;
22455;SDS011;11395;53.204;6.502;2022-12-18T13:38:42;2.90;;;2.70;;
22455;SDS011;11395;53.204;6.502;2022-12-18T13:43:53;3.30;;;2.97;;
22455;SDS011;11395;53.204;6.502;2022-12-18T13:51:52;2.70;;;2.50;;
22455;SDS011;11395;53.204;6.502;2022-12-18T13:57:01;2.50;;;2.30;;
22455;SDS011;11395;53.204;6.502;2022-12-18T13:59:38;2.67;;;2.47;;
22455;SDS011;11395;53.204;6.502;2022-12-18T14:02:15;5.27;;;2.73;;
22455;SDS011;11395;53.204;6.502;2022-12-18T14:04:46;2.90;;;2.70;;
22455;SDS011;11395;53.204;6.502;2022-12-18T14:07:18;2.60;;;2.40;;
22455;SDS011;11395;53.204;6.502;2022-12-18T14:09:49;2.60;;;2.40;;
22455;SDS011;11395;53.204;6.502;2022-12-18T14:15:53;2.80;;;2.60;;
22455;SDS011;11395;53.204;6.502;2022-12-18T14:18:03;2.60;;;2.40;;
22455;SDS011;11395;53.204;6.502;2022-12-18T14:20:48;2.87;;;2.67;;
22455;SDS011;11395;53.204;6.502;2022-12-18T14:23:26;3.03;;;2.50;;
22455;SDS011;11395;53.204;6.502;2022-12-18T14:25:55;5.00;;;2.50;;
22455;SDS011;11395;53.204;6.502;2022-12-18T14:28:21;3.73;;;2.37;;
22455;SDS011;11395;53.204;6.502;2022-12-18T14:30:48;2.57;;;2.37;;
22455;SDS011;11395;53.204;6.502;2022-12-18T14:33:15;3.27;;;2.60;;
22455;SDS011;11395;53.204;6.502;2022-12-18T14:36:00;6.23;;;3.60;;
22455;SDS011;11395;53.204;6.502;2022-12-18T14:38:38;6.40;;;3.73;;
22455;SDS011;11395;53.204;6.502;2022-12-18T14:41:15;13.13;;;8.13;;
22455;SDS011;11395;53.204;6.502;2022-12-18T14:43:43;30.83;;;14.03;;
22455;SDS011;11395;53.204;6.502;2022-12-18T14:49:33;52.97;;;23.00;;
22455;SDS011;11395;53.204;6.502;2022-12-18T14:51:59;46.20;;;19.50;;
22455;SDS011;11395;53.204;6.502;2022-12-18T14:54:28;35.83;;;17.17;;
22455;SDS011;11395;53.204;6.502;2022-12-18T14:59:24;28.33;;;13.93;;
22455;SDS011;11395;53.204;6.502;2022-12-18T15:04:35;22.30;;;11.47;;
22455;SDS011;11395;53.204;6.502;2022-12-18T15:09:43;18.93;;;9.63;;
22455;SDS011;11395;53.204;6.502;2022-12-18T15:12:31;25.40;;;9.87;;
22455;SDS011;11395;53.204;6.502;2022-12-18T15:20:48;14.83;;;7.87;;
22455;SDS011;11395;53.204;6.502;2022-12-18T15:23:45;13.40;;;7.57;;
22455;SDS011;11395;53.204;6.502;2022-12-18T15:26:17;14.33;;;7.27;;
22455;SDS011;11395;53.204;6.502;2022-12-18T15:33:43;11.37;;;6.33;;
22455;SDS011;11395;53.204;6.502;2022-12-18T15:36:25;10.40;;;6.57;;
22455;SDS011;11395;53.204;6.502;2022-12-18T15:38:52;12.67;;;6.63;;
22455;SDS011;11395;53.204;6.502;2022-12-18T15:41:21;11.27;;;6.67;;
22455;SDS011;11395;53.204;6.502;2022-12-18T15:43:48;11.63;;;6.53;;
22455;SDS011;11395;53.204;6.502;2022-12-18T15:46:17;13.17;;;8.90;;
22455;SDS011;11395;53.204;6.502;2022-12-18T15:51:21;10.03;;;7.70;;
22455;SDS011;11395;53.204;6.502;2022-12-18T15:54:10;9.33;;;6.77;;
22455;SDS011;11395;53.204;6.502;2022-12-18T15:56:39;9.50;;;6.63;;
22455;SDS011;11395;53.204;6.502;2022-12-18T15:59:24;11.30;;;7.90;;
22455;SDS011;11395;53.204;6.502;2022-12-18T16:01:51;9.30;;;7.17;;
22455;SDS011;11395;53.204;6.502;2022-12-18T16:04:21;9.43;;;6.57;;
22455;SDS011;11395;53.204;6.502;2022-12-18T16:06:49;7.53;;;6.13;;
22455;SDS011;11395;53.204;6.502;2022-12-18T16:09:15;7.23;;;5.50;;
22455;SDS011;11395;53.204;6.502;2022-12-18T16:11:42;5.93;;;5.07;;
22455;SDS011;11395;53.204;6.502;2022-12-18T16:14:24;9.60;;;5.83;;
22455;SDS011;11395;53.204;6.502;2022-12-18T16:16:53;5.97;;;5.37;;
22455;SDS011;11395;53.204;6.502;2022-12-18T16:19:21;8.27;;;5.20;;
22455;SDS011;11395;53.204;6.502;2022-12-18T16:21:48;7.30;;;5.03;;
22455;SDS011;11395;53.204;6.502;2022-12-18T16:24:20;6.93;;;4.63;;
22455;SDS011;11395;53.204;6.502;2022-12-18T16:26:48;5.87;;;4.50;;
22455;SDS011;11395;53.204;6.502;2022-12-18T16:29:17;5.33;;;4.27;;
22455;SDS011;11395;53.204;6.502;2022-12-18T16:31:45;5.60;;;3.97;;
22455;SDS011;11395;53.204;6.502;2022-12-18T16:36:48;5.23;;;4.23;;
22455;SDS011;11395;53.204;6.502;2022-12-18T16:39:15;4.47;;;4.00;;
22455;SDS011;11395;53.204;6.502;2022-12-18T16:41:42;4.87;;;3.87;;
22455;SDS011;11395;53.204;6.502;2022-12-18T16:44:09;4.87;;;3.70;;
22455;SDS011;11395;53.204;6.502;2022-12-18T16:46:36;4.50;;;3.90;;
22455;SDS011;11395;53.204;6.502;2022-12-18T16:49:03;3.83;;;3.43;;
22455;SDS011;11395;53.204;6.502;2022-12-18T16:51:29;3.23;;;3.00;;
22455;SDS011;11395;53.204;6.502;2022-12-18T16:53:59;3.70;;;3.40;;
22455;SDS011;11395;53.204;6.502;2022-12-18T16:56:25;3.70;;;3.40;;
22455;SDS011;11395;53.204;6.502;2022-12-18T16:58:52;3.30;;;3.00;;
22455;SDS011;11395;53.204;6.502;2022-12-18T17:01:20;3.47;;;3.17;;
22455;SDS011;11395;53.204;6.502;2022-12-18T17:03:51;4.13;;;3.10;;
22455;SDS011;11395;53.204;6.502;2022-12-18T17:06:21;4.13;;;3.00;;
22455;SDS011;11395;53.204;6.502;2022-12-18T17:08:53;3.10;;;2.83;;
22455;SDS011;11395;53.204;6.502;2022-12-18T17:11:22;3.97;;;2.97;;
22455;SDS011;11395;53.204;6.502;2022-12-18T17:13:49;3.30;;;2.87;;
22455;SDS011;11395;53.204;6.502;2022-12-18T17:16:16;2.53;;;2.40;;
22455;SDS011;11395;53.204;6.502;2022-12-18T17:18:43;3.60;;;3.00;;
22455;SDS011;11395;53.204;6.502;2022-12-18T17:21:10;2.73;;;2.50;;
22455;SDS011;11395;53.204;6.502;2022-12-18T17:23:39;3.73;;;3.13;;
22455;SDS011;11395;53.204;6.502;2022-12-18T17:26:06;2.80;;;2.47;;
22455;SDS011;11395;53.204;6.502;2022-12-18T17:28:35;3.13;;;2.77;;
22455;SDS011;11395;53.204;6.502;2022-12-18T17:31:22;3.57;;;2.90;;